Gulfport Biloxi International Airport Gulfport US
ICAO: KGPT
IATA: GPT
Category: Large
Scheduled Services: Yes

Elevation: 28 ft
TransAlt. 18000 ft.

Airport Communications:
APP/DEP:124.6
ATIS:119.45
CTAF:123.7
GND:120.4
ANG OPS:37.78
GREENWOOD RDO:109
TWR:123.7
UNICOM:122.95

KGPT Zoom In..

Runways:

(A) RW 14 length 9002 ft width 150 ft
ILS 110.90 / hdg 133

(B) RW 18 length 4935 ft width 150 ft
---- / hdg 178

(C) RW 32 length 9002 ft width 150 ft
ILS 108.30 / hdg 313

(D) RW 36 length 4935 ft width 150 ft
---- / hdg 358

Location; KGPT
Day. 07 / Time. 18.53 Zulu
* Altimeter: 30.02
* Temperature: 24° c. 75.2°f.
* Wind from: 170° Speed 06 kn.
Dewpoint: 21° c.
Visibility: 6 Statute Miles.
Clouds: Broken 700 ft.
Clouds: Overcast 4200 ft.
Conditions: Haze.

KGPT 071853Z 17006KT 6SM HZ BKN007 OVC042 24/21 A3002 RMK AO2 RAE24 SLP165 P0000 T02440211 $


Wind From 170°
Speed 06 kn.

 
 
jpsmedia worldairports.se 2020   terms of use